Time;durP1;ratioP1;P1;durP2;ratioP2;P2;SDS_P1;SDS_P2;PMS_P1;PMS_P2;Temp;Humidity;BMP_temperature;BMP_pressure;BME280_temperature;BME280_humidity;BME280_pressure;Samples;Min_cycle;Max_cycle;Signal;HPM_P1;HPM_P2
2022/02/03 00:01:07;;;;;;;7.80;2.20;;;;;;;2.22;90.35;101302.58;107445;1282;71384;-76
2022/02/03 00:03:46;;;;;;;6.00;1.90;;;;;;;2.26;90.34;101307.73;107265;1284;73058;-76
2022/02/03 00:06:17;;;;;;;11.20;2.40;;;;;;;2.26;90.30;101308.02;107479;1282;62428;-76
2022/02/03 00:17:01;;;;;;;8.50;2.00;;;;;;;2.34;89.95;101297.56;107433;1282;74174;-76
2022/02/03 00:25:07;;;;;;;7.00;2.40;;;;;;;2.38;90.02;101303.73;107494;1282;74716;-76
2022/02/03 00:27:53;;;;;;;6.60;1.70;;;;;;;2.38;89.74;101302.48;107482;1281;72767;-76
2022/02/03 00:30:21;;;;;;;10.80;2.20;;;;;;;2.38;90.09;101295.01;107449;1282;72423;-76
2022/02/03 00:33:07;;;;;;;7.80;1.70;;;;;;;2.40;89.93;101296.27;107448;1282;63596;-75
2022/02/03 00:35:57;;;;;;;;;;;;;;;2.39;90.10;101287.59;107351;1282;61615;-74
2022/02/03 00:49:13;;;;;;;11.30;2.10;;;;;;;2.35;90.46;101274.92;107573;1282;61087;-75
2022/02/03 00:51:44;;;;;;;7.50;1.90;;;;;;;2.34;90.67;101272.20;107407;1282;74532;-75
2022/02/03 00:54:11;;;;;;;3.70;1.50;;;;;;;2.32;90.58;101269.56;107563;1282;71532;-74
2022/02/03 00:56:41;;;;;;;16.50;2.40;;;;;;;2.31;90.82;101266.53;107438;1282;73945;-75
2022/02/03 00:59:09;;;;;;;5.60;1.30;;;;;;;2.30;90.87;101260.00;107519;1282;61165;-76
2022/02/03 01:01:38;;;;;;;5.20;1.60;;;;;;;2.26;91.02;101257.59;107363;1282;60600;-75
2022/02/03 01:04:10;;;;;;;7.80;1.30;;;;;;;2.24;91.09;101253.58;107361;1282;73615;-75
2022/02/03 01:06:57;;;;;;;8.50;1.60;;;;;;;2.22;91.14;101252.83;107496;1282;71475;-75
2022/02/03 01:09:30;;;;;;;6.90;1.60;;;;;;;2.19;91.36;101248.52;107559;1282;73124;-75
2022/02/03 01:12:12;;;;;;;6.20;1.40;;;;;;;2.16;91.41;101251.33;107502;1281;61391;-75
2022/02/03 01:20:41;;;;;;;5.70;1.00;;;;;;;2.02;91.96;101234.65;107491;1282;71329;-74
2022/02/03 01:44:54;;;;;;;;;;;;;;;2.10;93.46;101210.73;107551;1281;75078;-74
2022/02/03 01:47:34;;;;;;;5.50;1.90;;;;;;;2.13;93.35;101204.80;107480;1282;71564;-76
2022/02/03 01:52:46;;;;;;;11.20;2.40;;;;;;;2.21;93.63;101194.28;107489;1282;61581;-75
2022/02/03 01:55:22;;;;;;;9.80;1.80;;;;;;;2.25;93.63;101193.98;107508;1282;61795;-75
2022/02/03 01:57:57;;;;;;;12.90;2.30;;;;;;;2.31;93.57;101189.02;107462;1282;74680;-75
2022/02/03 02:00:25;;;;;;;14.20;2.90;;;;;;;2.37;93.72;101188.93;107490;1282;71225;-75
2022/02/03 02:03:10;;;;;;;16.80;2.40;;;;;;;2.43;93.80;101180.84;107512;1282;72704;-75
2022/02/03 02:06:08;;;;;;;7.30;1.70;;;;;;;2.50;93.97;101178.08;107509;1282;61524;-75
2022/02/03 02:08:42;;;;;;;4.70;1.90;;;;;;;2.59;93.63;101174.27;107518;1281;60629;-74
2022/02/03 02:11:34;;;;;;;6.60;1.40;;;;;;;2.67;93.68;101164.63;107483;1281;74125;-75
2022/02/03 02:19:27;;;;;;;7.10;1.90;;;;;;;2.95;92.79;101156.58;107526;1282;61577;-76
2022/02/03 02:39:36;;;;;;;8.20;2.20;;;;;;;3.34;93.65;101146.02;107446;1282;76078;-76
2022/02/03 02:45:00;;;;;;;10.50;2.10;;;;;;;3.36;94.50;101145.86;107452;1282;73134;-76
2022/02/03 02:47:49;;;;;;;12.50;2.50;;;;;;;3.35;94.73;101138.05;107482;1282;62230;-76
2022/02/03 02:50:24;;;;;;;7.50;1.70;;;;;;;3.36;95.09;101131.52;107286;1282;60420;-76
2022/02/03 02:53:10;;;;;;;;;;;;;;;3.35;95.11;101127.05;107452;1281;76826;-75
2022/02/03 02:56:12;;;;;;;10.90;2.10;;;;;;;3.34;95.82;101122.98;107542;1282;71375;-76
2022/02/03 03:35:35;;;;;;;13.40;4.40;;;;;;;3.42;100.00;101078.39;107464;1281;75996;-76
2022/02/03 03:38:06;;;;;;;17.90;4.30;;;;;;;3.43;100.00;101075.23;107347;1282;72531;-76
2022/02/03 03:40:34;;;;;;;21.60;5.30;;;;;;;3.41;100.00;101073.23;107478;1282;72863;-75
2022/02/03 03:43:12;;;;;;;18.20;4.60;;;;;;;3.38;100.00;101070.84;107446;1282;63513;-75
2022/02/03 03:45:46;;;;;;;11.90;3.90;;;;;;;3.36;100.00;101062.23;107464;1282;59561;-75
2022/02/03 03:48:19;;;;;;;20.90;5.10;;;;;;;3.33;100.00;101062.83;107434;1282;76046;-75
2022/02/03 03:50:52;;;;;;;16.10;3.80;;;;;;;3.31;100.00;101059.35;107380;1282;71256;-75
2022/02/03 03:53:32;;;;;;;17.50;4.90;;;;;;;3.28;100.00;101056.27;107446;1282;73963;-76
2022/02/03 03:56:09;;;;;;;19.90;4.50;;;;;;;3.26;100.00;101054.83;107347;1282;61196;-75
2022/02/03 04:32:12;;;;;;;15.60;4.80;;;;;;;3.26;100.00;101036.47;107689;1279;75047;-74
2022/02/03 04:38:10;;;;;;;26.70;6.10;;;;;;;3.30;100.00;101033.20;107391;1281;73178;-74
2022/02/03 05:04:45;;;;;;;15.90;6.10;;;;;;;3.45;100.00;100991.95;107674;1281;72460;-74
2022/02/03 05:07:49;;;;;;;12.80;4.70;;;;;;;3.46;100.00;100987.70;107631;1281;72568;-74
2022/02/03 05:10:45;;;;;;;13.10;4.70;;;;;;;3.46;100.00;100982.63;107701;1279;60436;-74
2022/02/03 05:44:26;;;;;;;15.40;5.20;;;;;;;3.60;100.00;100963.12;107589;1281;61734;-75
2022/02/03 06:08:28;;;;;;;10.80;4.50;;;;;;;3.86;100.00;100949.02;107624;1281;61483;-74
2022/02/03 06:13:52;;;;;;;13.80;5.00;;;;;;;3.91;100.00;100942.45;107616;1281;74824;-75
2022/02/03 06:22:22;;;;;;;12.50;5.30;;;;;;;4.00;100.00;100935.42;107149;1281;62591;-80
2022/02/03 06:27:53;;;;;;;12.10;5.40;;;;;;;4.10;100.00;100938.48;107371;1281;74743;-80
2022/02/03 06:30:21;;;;;;;8.80;5.20;;;;;;;4.13;100.00;100935.07;107706;1281;70386;-81
2022/02/03 06:32:48;;;;;;;15.30;6.20;;;;;;;4.16;100.00;100927.33;107698;1281;74473;-81
2022/02/03 06:35:19;;;;;;;12.20;5.40;;;;;;;4.19;100.00;100931.40;107622;1281;62704;-80
2022/02/03 06:37:48;;;;;;;13.20;6.20;;;;;;;4.22;100.00;100929.56;107775;1279;60119;-81
2022/02/03 06:40:16;;;;;;;12.80;6.20;;;;;;;4.25;100.00;100929.33;107667;1279;75021;-80
2022/02/03 06:42:44;;;;;;;8.00;4.30;;;;;;;4.28;100.00;100923.65;107703;1279;72878;-81
2022/02/03 06:45:30;;;;;;;15.10;7.10;;;;;;;4.30;100.00;100924.52;107631;1281;73091;-80
2022/02/03 06:48:02;;;;;;;9.30;4.20;;;;;;;4.33;100.00;100919.23;107658;1281;60705;-80
2022/02/03 06:50:35;;;;;;;17.60;6.70;;;;;;;4.35;100.00;100911.55;107800;1279;61047;-80
2022/02/03 06:53:09;;;;;;;12.60;6.70;;;;;;;4.36;100.00;100904.77;107647;1279;75015;-80
2022/02/03 06:58:15;;;;;;;9.40;6.10;;;;;;;4.39;100.00;100908.56;107625;1280;74129;-80
2022/02/03 07:00:54;;;;;;;11.60;4.90;;;;;;;4.40;100.00;100907.59;107672;1279;64651;-80
2022/02/03 07:03:24;;;;;;;14.40;6.80;;;;;;;4.42;100.00;100904.11;107778;1279;60598;-80
2022/02/03 07:05:51;;;;;;;11.90;6.50;;;;;;;4.43;100.00;100905.36;107576;1279;73652;-80
2022/02/03 07:08:19;;;;;;;18.60;7.20;;;;;;;4.45;100.00;100900.17;107477;1281;59300;-79
2022/02/03 07:10:47;;;;;;;13.90;7.60;;;;;;;4.47;100.00;100898.42;107849;1279;74060;-81
2022/02/03 07:13:15;;;;;;;14.00;6.50;;;;;;;4.49;100.00;100894.02;107961;1279;62579;-80
2022/02/03 07:15:42;;;;;;;14.60;6.40;;;;;;;4.51;100.00;100895.48;107558;1280;61622;-80
2022/02/03 07:18:11;;;;;;;12.50;7.40;;;;;;;4.53;100.00;100899.15;107861;1281;75996;-80
2022/02/03 07:20:37;;;;;;;11.30;6.60;;;;;;;4.55;100.00;100898.45;107770;1281;72372;-80
2022/02/03 07:23:06;;;;;;;16.10;7.40;;;;;;;4.57;100.00;100903.16;107916;1281;72042;-79
2022/02/03 07:25:33;;;;;;;13.40;7.10;;;;;;;4.60;100.00;100906.29;107790;1272;62484;-81
2022/02/03 07:28:01;;;;;;;11.50;6.90;;;;;;;4.62;100.00;100907.00;107639;1279;610405;-80
2022/02/03 07:30:29;;;;;;;11.60;6.80;;;;;;;4.63;100.00;100905.96;108031;1281;74936;-81
2022/02/03 07:32:59;;;;;;;11.80;6.40;;;;;;;4.66;100.00;100908.58;108058;1279;71145;-80
2022/02/03 07:35:30;;;;;;;8.00;4.60;;;;;;;4.67;100.00;100910.73;108015;1279;73101;-80
2022/02/03 07:37:57;;;;;;;10.90;6.00;;;;;;;4.69;100.00;100905.98;107873;1281;62623;-82
2022/02/03 07:40:23;;;;;;;8.00;4.50;;;;;;;4.72;100.00;100906.11;108022;1280;60549;-80
2022/02/03 07:42:51;;;;;;;13.80;6.70;;;;;;;4.73;100.00;100903.59;108056;1281;59520;-81
2022/02/03 07:45:19;;;;;;;9.00;6.10;;;;;;;4.75;100.00;100902.03;108127;1281;70029;-80
2022/02/03 07:47:49;;;;;;;11.50;6.60;;;;;;;4.77;100.00;100900.96;107960;1271;72928;-81
2022/02/03 07:50:18;;;;;;;12.60;6.70;;;;;;;4.79;100.00;100904.13;108155;1279;61603;-82
2022/02/03 07:52:46;;;;;;;11.80;6.10;;;;;;;4.81;100.00;100900.45;108176;1281;59549;-81
2022/02/03 07:55:14;;;;;;;11.20;5.90;;;;;;;4.82;100.00;100898.05;108126;1280;75014;-81
2022/02/03 07:57:46;;;;;;;11.00;6.50;;;;;;;4.84;100.00;100900.98;108176;1279;71403;-80
2022/02/03 08:00:14;;;;;;;13.80;6.10;;;;;;;4.87;100.00;100898.35;107702;1281;73055;-80
2022/02/03 08:03:05;;;;;;;13.10;6.10;;;;;;;4.91;100.00;100899.96;108162;1279;63493;-80
2022/02/03 08:05:32;;;;;;;11.20;7.00;;;;;;;4.94;100.00;100902.50;108041;1281;62243;-79
2022/02/03 08:08:47;;;;;;;12.10;6.90;;;;;;;4.98;100.00;100906.54;108136;1281;75213;-83
2022/02/03 08:10:52;;;;;;;9.90;6.10;;;;;;;5.01;100.00;100903.61;108006;1281;71781;-79
2022/02/03 08:13:27;;;;;;;15.70;8.50;;;;;;;5.05;100.00;100903.66;107894;1281;74306;-81
2022/02/03 08:16:10;;;;;;;11.20;6.50;;;;;;;5.08;100.00;100898.25;108160;1281;60254;-81
2022/02/03 08:18:38;;;;;;;11.40;7.20;;;;;;;5.13;100.00;100890.84;107713;1269;60453;-82
2022/02/03 08:21:05;;;;;;;13.80;7.50;;;;;;;5.18;100.00;100889.81;107831;1281;77146;-81
2022/02/03 08:28:53;;;;;;;13.70;7.40;;;;;;;5.35;100.00;100885.73;107783;1281;63552;-81
2022/02/03 08:31:39;;;;;;;14.60;7.40;;;;;;;5.40;100.00;100882.27;107788;1281;61196;-81
2022/02/03 08:34:06;;;;;;;14.90;8.50;;;;;;;5.44;100.00;100875.82;107631;1282;76083;-81
2022/02/03 08:36:38;;;;;;;14.90;7.80;;;;;;;5.48;100.00;100875.99;107638;1284;72765;-82
2022/02/03 08:39:07;;;;;;;8.10;4.70;;;;;;;5.51;100.00;100875.34;107762;1281;73184;-81
2022/02/03 08:41:35;;;;;;;15.30;7.60;;;;;;;5.54;100.00;100872.26;107648;1283;62771;-81
2022/02/03 08:44:02;;;;;;;17.80;8.00;;;;;;;5.57;100.00;100876.71;107536;1282;60791;-82
2022/02/03 08:46:31;;;;;;;13.30;7.60;;;;;;;5.60;100.00;100871.45;107727;1281;75981;-81
2022/02/03 08:49:01;;;;;;;13.80;8.30;;;;;;;5.61;100.00;100867.63;107657;1281;71511;-83
2022/02/03 08:51:28;;;;;;;15.30;7.50;;;;;;;5.62;100.00;100871.23;107539;1284;73002;-81
2022/02/03 08:53:57;;;;;;;10.20;5.10;;;;;;;5.62;100.00;100865.23;107675;1282;62639;-81
2022/02/03 08:57:18;;;;;;;12.20;6.70;;;;;;;5.63;100.00;100866.05;107644;1284;60366;-80
2022/02/03 09:37:58;;;;;;;11.30;6.80;;;;;;;5.92;100.00;100839.13;107700;1284;61592;-80
2022/02/03 09:40:54;;;;;;;10.50;6.40;;;;;;;5.95;100.00;100838.02;107729;1282;75926;-80
2022/02/03 10:02:10;;;;;;;10.70;6.10;;;;;;;6.27;100.00;100831.24;107727;1282;62957;-81
2022/02/03 10:04:48;;;;;;;10.00;5.20;;;;;;;6.29;100.00;100826.85;107613;1284;60763;-81
2022/02/03 10:07:21;;;;;;;10.50;5.60;;;;;;;6.31;100.00;100821.91;107754;1282;75203;-81
2022/02/03 10:09:49;;;;;;;11.00;5.30;;;;;;;6.34;100.00;100823.23;107547;1283;70614;-81
2022/02/03 10:12:17;;;;;;;9.50;5.10;;;;;;;6.35;100.00;100828.77;107746;1282;74014;-81
2022/02/03 10:14:47;;;;;;;11.20;5.60;;;;;;;6.35;100.00;100827.35;107676;1284;61366;-82
2022/02/03 10:17:18;;;;;;;8.20;4.80;;;;;;;6.36;100.00;100828.69;107763;1281;61870;-82
2022/02/03 10:19:58;;;;;;;11.00;5.80;;;;;;;6.36;100.00;100827.11;107708;1282;74933;-81
2022/02/03 10:22:27;;;;;;;9.20;5.10;;;;;;;6.36;100.00;100830.80;107631;1284;72437;-81
2022/02/03 10:25:01;;;;;;;10.50;6.00;;;;;;;6.34;100.00;100831.83;107640;1282;75184;-82
2022/02/03 10:27:37;;;;;;;12.50;5.90;;;;;;;6.34;100.00;100826.70;107723;1283;62541;-81
2022/02/03 10:30:12;;;;;;;10.80;6.70;;;;;;;6.35;100.00;100816.64;107789;1282;62062;-83
2022/02/03 10:32:39;;;;;;;;;;;;;;;6.36;100.00;100813.74;107699;1271;76052;-82
2022/02/03 10:35:23;;;;;;;11.50;6.30;;;;;;;6.37;100.00;100810.07;107847;1281;71411;-82
2022/02/03 10:38:18;;;;;;;9.00;5.30;;;;;;;6.40;100.00;100811.77;107766;1281;72908;-81
2022/02/03 10:56:42;;;;;;;15.30;6.50;;;;;;;6.69;100.00;100775.27;107941;1281;61381;-81
2022/02/03 11:08:44;;;;;;;11.60;5.80;;;;;;;6.86;100.00;100789.65;107632;1271;62088;-81
2022/02/03 11:11:19;;;;;;;11.50;5.70;;;;;;;6.87;100.00;100788.52;107932;1280;59573;-82
2022/02/03 11:13:47;;;;;;;11.40;6.40;;;;;;;6.87;100.00;100789.17;107880;1281;76198;-81
2022/02/03 11:16:17;;;;;;;13.40;6.80;;;;;;;6.85;100.00;100785.63;107954;1281;72465;-80
2022/02/03 11:18:47;;;;;;;15.00;8.30;;;;;;;6.85;100.00;100790.08;107719;1271;158675;-79
2022/02/03 11:21:35;;;;;;;19.30;8.10;;;;;;;6.85;100.00;100799.61;107926;1281;63923;-77
2022/02/03 11:24:30;;;;;;;19.40;9.50;;;;;;;6.87;100.00;100792.70;107748;1282;62020;-77
2022/02/03 11:27:12;;;;;;;19.80;8.80;;;;;;;6.90;100.00;100792.93;107566;1281;74902;-77
2022/02/03 11:52:32;;;;;;;;;;;;;;;;;;;;;
2022/02/03 12:02:23;;;;;;;15.60;8.20;;;;;;;7.07;100.00;100730.57;107849;1281;71519;-80
2022/02/03 12:05:21;;;;;;;19.00;9.50;;;;;;;7.10;100.00;100724.02;107083;1282;74262;-79
2022/02/03 12:15:06;;;;;;;17.10;9.50;;;;;;;7.18;100.00;100711.27;106566;1290;76069;-79
2022/02/03 12:18:29;;;;;;;;;;;;;;;;;;;;;
2022/02/03 12:21:10;;;;;;;15.60;8.90;;;;;;;7.16;100.00;100695.98;106502;1290;74053;-80
2022/02/03 12:24:02;;;;;;;13.80;7.40;;;;;;;7.16;99.99;100697.76;107289;1283;62069;-81
2022/02/03 12:27:09;;;;;;;15.40;7.60;;;;;;;7.17;99.93;100687.05;107779;1281;60829;-80
2022/02/03 12:30:25;;;;;;;10.70;5.70;;;;;;;7.18;99.92;100687.35;107773;1283;74958;-80
2022/02/03 12:38:30;;;;;;;12.20;6.30;;;;;;;7.18;100.00;100695.95;107744;1282;62431;-80
2022/02/03 12:45:22;;;;;;;;;;;;;;;;;;;;;
2022/02/03 12:47:58;;;;;;;13.30;7.50;;;;;;;7.16;99.89;100679.63;107729;1283;71520;-81
2022/02/03 12:50:37;;;;;;;13.20;7.20;;;;;;;7.16;99.98;100674.52;107753;1282;71665;-80
2022/02/03 12:53:49;;;;;;;12.20;6.80;;;;;;;7.16;99.84;100674.31;107536;1284;63505;-84
2022/02/03 12:56:31;;;;;;;13.90;7.70;;;;;;;7.17;99.98;100669.81;107645;1284;60819;-87
2022/02/03 12:59:35;;;;;;;15.30;7.90;;;;;;;7.19;100.00;100666.15;107485;1284;76270;-85
2022/02/03 13:02:54;;;;;;;15.30;7.30;;;;;;;7.19;99.91;100657.48;107592;1284;72901;-84
2022/02/03 13:05:36;;;;;;;14.00;7.20;;;;;;;7.21;99.94;100650.08;107783;1282;74075;-84
2022/02/03 13:08:56;;;;;;;12.00;6.90;;;;;;;7.22;99.73;100649.09;107700;1284;62306;-83
2022/02/03 13:12:01;;;;;;;12.40;6.60;;;;;;;7.22;99.89;100647.48;107503;1284;60777;-83
2022/02/03 13:15:09;;;;;;;11.60;6.40;;;;;;;7.22;99.91;100645.80;107183;1287;75106;-83
2022/02/03 13:18:30;;;;;;;14.30;7.30;;;;;;;7.21;99.99;100642.71;107217;1287;72543;-82
2022/02/03 13:22:03;;;;;;;15.60;8.40;;;;;;;7.20;100.00;100634.84;107111;1287;74067;-82
2022/02/03 13:25:12;;;;;;;16.40;7.90;;;;;;;7.21;100.00;100635.27;107040;1287;63665;-83
2022/02/03 13:28:12;;;;;;;14.10;7.50;;;;;;;7.21;100.00;100635.97;107066;1287;62139;-83
2022/02/03 13:31:40;;;;;;;11.00;5.20;;;;;;;7.22;100.00;100633.13;107173;1287;76407;-83
2022/02/03 13:34:31;;;;;;;13.60;8.00;;;;;;;7.21;100.00;100628.42;106688;1287;72964;-83
2022/02/03 13:37:29;;;;;;;17.20;7.70;;;;;;;7.23;100.00;100622.16;107200;1287;73995;-83
2022/02/03 13:40:25;;;;;;;13.00;6.30;;;;;;;7.23;100.00;100618.27;107815;1284;64893;-83
2022/02/03 13:43:04;;;;;;;15.40;7.20;;;;;;;7.20;100.00;100617.79;107803;1284;61617;-82
2022/02/03 13:45:41;;;;;;;;;;;;;;;;;;;;;
2022/02/03 13:48:21;;;;;;;12.50;7.30;;;;;;;7.17;100.00;100605.06;107830;1284;72295;-82
2022/02/03 13:51:26;;;;;;;14.30;7.00;;;;;;;7.17;100.00;100599.90;107607;1284;74846;-82
2022/02/03 13:54:27;;;;;;;9.40;4.70;;;;;;;7.15;100.00;100598.47;107807;1282;63026;-82
2022/02/03 14:22:39;;;;;;;;;;;;;;;;;;;;;
2022/02/03 14:28:09;;;;;;;8.50;5.10;;;;;;;7.04;100.00;100561.95;107576;1284;60595;-83
2022/02/03 14:30:46;;;;;;;9.20;5.30;;;;;;;6.99;100.00;100553.81;107644;1282;73911;-83
2022/02/03 14:33:24;;;;;;;9.90;5.80;;;;;;;6.95;100.00;100550.72;107864;1282;72463;-83
2022/02/03 14:36:21;;;;;;;8.00;5.00;;;;;;;6.90;100.00;100553.68;107745;1282;74068;-83
2022/02/03 14:39:06;;;;;;;6.20;4.00;;;;;;;6.83;100.00;100552.59;107834;1282;62598;-83
2022/02/03 14:42:37;;;;;;;9.80;5.40;;;;;;;6.80;100.00;100551.38;107806;1283;60531;-82
2022/02/03 14:46:02;;;;;;;7.50;4.40;;;;;;;6.73;100.00;100556.40;107871;1282;74976;-82
2022/02/03 14:49:19;;;;;;;7.80;4.60;;;;;;;6.67;100.00;100550.89;107827;1282;71438;-82
2022/02/03 14:59:38;;;;;;;10.40;6.00;;;;;;;6.56;100.00;100546.38;107878;1282;60645;-83
2022/02/03 15:02:49;;;;;;;;;;;;;;;;;;;;;
2022/02/03 15:06:00;;;;;;;;;;;;;;;;;;;;;
2022/02/03 15:12:21;;;;;;;;;;;;;;;;;;;;;
2022/02/03 15:15:26;;;;;;;;;;;;;;;;;;;;;
2022/02/03 15:17:53;;;;;;;6.20;3.70;;;;;;;6.50;100.00;100519.52;107810;1282;74916;-81
2022/02/03 15:21:11;;;;;;;;;;;;;;;;;;;;;
2022/02/03 15:23:53;;;;;;;;;;;;;;;;;;;;;
2022/02/03 15:27:14;;;;;;;12.40;7.80;;;;;;;6.50;100.00;100520.58;107831;1282;63548;-80
2022/02/03 15:30:00;;;;;;;;;;;;;;;;;;;;;
2022/02/03 15:32:39;;;;;;;;;;;;;;;;;;;;;
2022/02/03 15:35:38;;;;;;;12.70;7.50;;;;;;;6.52;100.00;100507.56;107754;1283;71757;-81
2022/02/03 15:38:37;;;;;;;10.70;6.80;;;;;;;6.53;100.00;100503.39;108023;1282;73420;-82
2022/02/03 15:41:07;;;;;;;13.50;7.20;;;;;;;6.53;100.00;100504.60;107951;1282;62359;-82
2022/02/03 15:43:52;;;;;;;;;;;;;;;;;;;;;
2022/02/03 15:46:30;;;;;;;12.20;8.90;;;;;;;6.54;100.00;100502.27;107952;1282;73980;-82
2022/02/03 15:49:56;;;;;;;;;;;;;;;;;;;;;
2022/02/03 16:13:09;;;;;;;;;;;;;;;;;;;;;
2022/02/03 16:16:51;;;;;;;;;;;;;;;6.47;99.72;100509.65;107878;1282;76317;-80
2022/02/03 16:18:55;;;;;;;13.30;8.30;;;;;;;6.46;98.81;100506.77;107341;1285;71409;-81
2022/02/03 16:21:41;;;;;;;12.30;7.50;;;;;;;6.46;98.02;100502.01;107432;1283;73443;-78
2022/02/03 16:55:22;;;;;;;14.40;9.00;;;;;;;6.25;97.72;100483.08;107649;1281;63253;-82
2022/02/03 16:58:05;;;;;;;14.40;8.00;;;;;;;6.20;97.93;100478.41;107698;1282;61960;-82
2022/02/03 17:00:47;;;;;;;;;;;;;;;;;;;;;
2022/02/03 17:03:32;;;;;;;;;;;;;;;;;;;;;
2022/02/03 17:06:12;;;;;;;15.60;7.70;;;;;;;6.11;98.30;100471.66;107034;1288;72955;-82
2022/02/03 17:09:23;;;;;;;11.20;6.10;;;;;;;6.09;98.42;100471.57;106875;1288;61631;-82
2022/02/03 17:12:00;;;;;;;;;;;;;;;;;;;;;
2022/02/03 17:14:50;;;;;;;13.20;8.20;;;;;;;6.06;98.86;100469.95;106994;1288;74886;-82
2022/02/03 17:17:28;;;;;;;16.10;8.80;;;;;;;6.00;99.12;100465.75;106981;1288;71906;-81
2022/02/03 17:20:12;;;;;;;16.20;9.40;;;;;;;6.00;99.40;100466.67;106956;1288;73173;-81
2022/02/03 17:22:57;;;;;;;17.90;9.50;;;;;;;5.96;99.42;100465.98;106918;1288;62871;-81
2022/02/03 17:25:37;;;;;;;18.30;10.00;;;;;;;5.97;99.46;100471.02;107003;1288;60869;-80
2022/02/03 17:28:53;;;;;;;14.90;9.00;;;;;;;5.96;99.36;100469.91;107058;1288;77762;-81
2022/02/03 17:31:49;;;;;;;14.70;9.40;;;;;;;5.94;99.43;100464.25;106924;1288;72010;-81
2022/02/03 18:05:53;;;;;;;11.80;7.50;;;;;;;5.83;97.55;100465.35;106890;1282;71580;-82
2022/02/03 18:09:19;;;;;;;12.60;7.20;;;;;;;5.81;96.89;100466.55;107626;1283;74600;-81
2022/02/03 18:51:42;;;;;;;12.70;6.80;;;;;;;5.43;98.31;100464.48;108018;1280;72846;-85
2022/02/03 18:58:26;;;;;;;12.30;7.60;;;;;;;5.36;98.91;100456.72;107920;1281;60880;-85
2022/02/03 19:10:51;;;;;;;8.70;5.30;;;;;;;5.24;100.00;100448.00;107601;1282;74546;-86
2022/02/03 20:12:34;;;;;;;;;;;;;;;;;;;;;
2022/02/03 20:15:18;;;;;;;;;;;;;;;;;;;;;
2022/02/03 20:18:24;;;;;;;;;;;;;;;;;;;;;
2022/02/03 20:21:29;;;;;;;;;;;;;;;;;;;;;
2022/02/03 20:24:42;;;;;;;;;;;;;;;;;;;;;
2022/02/03 20:27:54;;;;;;;13.30;8.60;;;;;;;5.21;99.99;100434.30;106961;1287;73642;-86
2022/02/03 20:31:15;;;;;;;;;;;;;;;;;;;;;
2022/02/03 20:34:28;;;;;;;16.80;9.30;;;;;;;5.23;100.00;100423.23;107297;1285;59302;-85
2022/02/03 20:37:55;;;;;;;15.20;8.40;;;;;;;5.24;99.93;100417.89;107245;1286;74968;-85
2022/02/03 20:40:57;;;;;;;;;;;;;;;;;;;;;
2022/02/03 20:44:16;;;;;;;16.40;9.20;;;;;;;5.23;99.81;100403.58;107271;1285;73391;-85
2022/02/03 20:47:25;;;;;;;18.70;9.00;;;;;;;5.23;99.95;100406.90;107430;1284;62696;-85
2022/02/03 20:50:39;;;;;;;;;;;;;;;;;;;;;
2022/02/03 20:53:40;;;;;;;;;;;;;;;;;;;;;
2022/02/03 20:56:16;;;;;;;15.30;9.20;;;;;;;5.19;99.99;100408.02;106790;1290;71497;-86
2022/02/03 21:02:51;;;;;;;17.20;9.40;;;;;;;5.19;99.98;100411.48;106523;1289;62883;-86
2022/02/03 21:06:33;;;;;;;19.50;9.50;;;;;;;5.20;100.00;100415.24;106840;1289;61473;-86
2022/02/03 21:09:25;;;;;;;15.50;10.00;;;;;;;5.21;100.00;100408.19;106709;1290;75330;-86
2022/02/03 21:12:34;;;;;;;15.10;9.20;;;;;;;5.20;100.00;100410.13;106690;1290;72246;-85
2022/02/03 21:15:29;;;;;;;18.30;10.00;;;;;;;5.21;100.00;100410.81;107107;1287;73663;-86
2022/02/03 21:18:43;;;;;;;17.30;9.70;;;;;;;5.20;100.00;100414.52;107049;1287;60713;-84
2022/02/03 21:21:44;;;;;;;13.90;8.80;;;;;;;5.18;100.00;100410.33;107089;1287;59903;-84
2022/02/03 21:24:43;;;;;;;17.50;9.80;;;;;;;5.22;99.98;100417.34;107255;1284;74990;-85
2022/02/03 21:27:52;;;;;;;14.70;8.00;;;;;;;5.23;99.93;100417.63;107080;1287;72586;-85
2022/02/03 21:30:50;;;;;;;19.00;10.70;;;;;;;5.24;99.97;100417.13;106964;1287;72026;-85
2022/02/03 21:33:56;;;;;;;;;;;;;;;;;;;;;
2022/02/03 21:37:12;;;;;;;14.10;8.90;;;;;;;5.25;99.96;100418.77;106709;1290;61118;-87
2022/02/03 21:40:40;;;;;;;14.90;8.80;;;;;;;5.25;99.93;100409.50;106666;1290;75316;-85
2022/02/03 21:43:44;;;;;;;19.10;9.60;;;;;;;5.25;99.87;100410.08;106752;1289;72145;-85
2022/02/03 21:49:59;;;;;;;;;;;;;;;;;;;;;
2022/02/03 21:52:38;;;;;;;14.20;7.90;;;;;;;5.26;99.93;100410.28;107721;1270;62181;-86
2022/02/03 21:55:08;;;;;;;16.60;9.80;;;;;;;5.24;99.98;100411.04;107218;1271;77487;-86
2022/02/03 21:57:42;;;;;;;18.00;10.20;;;;;;;5.26;99.98;100414.81;107494;1281;71945;-76
2022/02/03 22:00:11;;;;;;;19.50;10.80;;;;;;;5.26;100.00;100413.96;107419;1281;72973;-77
2022/02/03 22:02:37;;;;;;;17.80;10.40;;;;;;;5.25;100.00;100418.48;107458;1281;61304;-77
2022/02/03 22:05:07;;;;;;;17.00;9.60;;;;;;;5.24;100.00;100422.29;107484;1281;59910;-77
2022/02/03 22:07:34;;;;;;;15.60;8.60;;;;;;;5.22;100.00;100420.45;107361;1282;76074;-77
2022/02/03 22:10:01;;;;;;;15.50;9.10;;;;;;;5.21;100.00;100424.98;107449;1282;71844;-77
2022/02/03 22:12:28;;;;;;;19.50;11.40;;;;;;;5.20;100.00;100421.39;107445;1281;73089;-76
2022/02/03 22:14:54;;;;;;;17.90;10.40;;;;;;;5.20;100.00;100420.02;107242;1283;62650;-76
2022/02/03 22:17:21;;;;;;;19.90;11.20;;;;;;;5.18;100.00;100415.48;107491;1281;59229;-76
2022/02/03 22:19:51;;;;;;;22.10;11.80;;;;;;;5.19;100.00;100412.90;107456;1281;59554;-77
2022/02/03 22:27:35;;;;;;;20.00;11.40;;;;;;;5.21;100.00;100409.91;107424;1282;61574;-76
2022/02/03 22:46:38;;;;;;;17.60;10.40;;;;;;;5.22;100.00;100394.70;107487;1280;74987;-76
2022/02/03 22:49:08;;;;;;;12.20;6.90;;;;;;;5.21;100.00;100388.73;107333;1283;71447;-76
2022/02/03 22:51:37;;;;;;;18.10;9.90;;;;;;;5.20;100.00;100386.54;107373;1282;73754;-77
2022/02/03 22:54:07;;;;;;;15.00;7.30;;;;;;;5.18;100.00;100386.13;107363;1284;61465;-77
2022/02/03 22:56:34;;;;;;;15.90;9.70;;;;;;;5.18;100.00;100386.82;107378;1283;60631;-77
2022/02/03 23:01:46;;;;;;;21.90;10.20;;;;;;;5.17;100.00;100384.48;107350;1283;72795;-77
2022/02/03 23:04:16;;;;;;;19.50;9.50;;;;;;;5.17;100.00;100382.30;107387;1284;72955;-77
2022/02/03 23:06:43;;;;;;;20.30;11.10;;;;;;;5.16;100.00;100384.49;107334;1282;62902;-78
2022/02/03 23:09:30;;;;;;;20.30;12.00;;;;;;;5.16;100.00;100382.39;107411;1283;60780;-78
2022/02/03 23:12:11;;;;;;;19.10;11.70;;;;;;;5.15;100.00;100382.26;107016;1283;74310;-80
2022/02/03 23:20:01;;;;;;;18.60;11.40;;;;;;;5.14;100.00;100379.34;107390;1282;61400;-77
2022/02/03 23:22:27;;;;;;;20.40;11.20;;;;;;;5.14;100.00;100377.05;107419;1284;61129;-78
2022/02/03 23:24:55;;;;;;;23.00;12.40;;;;;;;5.14;100.00;100378.52;107355;1282;60444;-78
2022/02/03 23:29:50;;;;;;;21.60;10.90;;;;;;;5.13;100.00;100379.96;107439;1282;72926;-78
2022/02/03 23:32:17;;;;;;;21.90;12.60;;;;;;;5.13;100.00;100381.27;107318;1283;61618;-77
2022/02/03 23:34:49;;;;;;;21.70;11.20;;;;;;;5.13;100.00;100378.28;107411;1284;60775;-77
2022/02/03 23:37:15;;;;;;;20.40;11.60;;;;;;;5.12;100.00;100381.14;107363;1284;75060;-78
2022/02/03 23:43:18;;;;;;;18.50;10.70;;;;;;;5.11;100.00;100381.42;107339;1284;73439;-77
